Time;durP1;ratioP1;P1;durP2;ratioP2;P2;SDS_P1;SDS_P2;PMS_P1;PMS_P2;Temp;Humidity;BMP_temperature;BMP_pressure;BME280_temperature;BME280_humidity;BME280_pressure;Samples;Min_cycle;Max_cycle;Signal;HPM_P1;HPM_P2
2023/08/10 00:01:15;;;;;;;1.80;0.53;;;;;;;17.01;100.00;100857.47;5074603;28;20301;-57
2023/08/10 00:03:46;;;;;;;1.13;0.43;;;;;;;16.85;100.00;100858.88;5085501;28;20767;-61
2023/08/10 00:06:17;;;;;;;0.90;0.47;;;;;;;16.80;100.00;100875.75;5074472;28;20276;-55
2023/08/10 00:08:47;;;;;;;2.07;0.50;;;;;;;16.70;100.00;100869.03;5085230;28;20265;-58
2023/08/10 00:11:18;;;;;;;1.00;0.50;;;;;;;16.63;100.00;100867.47;5067991;28;20265;-60
2023/08/10 00:13:50;;;;;;;1.10;0.63;;;;;;;16.73;100.00;100874.19;5085245;28;20281;-57
2023/08/10 00:16:21;;;;;;;0.83;0.43;;;;;;;16.71;100.00;100865.44;5073672;28;20271;-57
2023/08/10 00:18:51;;;;;;;2.57;0.40;;;;;;;16.65;100.00;100864.78;5075559;28;20600;-57
2023/08/10 00:21:22;;;;;;;2.17;0.70;;;;;;;16.70;100.00;100858.47;5084386;28;20362;-61
2023/08/10 00:23:55;;;;;;;0.77;0.60;;;;;;;16.80;100.00;100867.84;5079479;28;20357;-61
2023/08/10 00:26:26;;;;;;;1.07;0.50;;;;;;;16.94;100.00;100871.78;5083966;28;20368;-59
2023/08/10 00:28:58;;;;;;;2.27;0.70;;;;;;;16.91;100.00;100867.47;5074959;28;20342;-59
2023/08/10 00:31:29;;;;;;;0.47;0.40;;;;;;;16.92;100.00;100858.63;5081541;28;20280;-57
2023/08/10 00:33:59;;;;;;;0.43;0.43;;;;;;;16.95;100.00;100857.69;5066131;28;20652;-60
2023/08/10 00:36:30;;;;;;;0.77;0.50;;;;;;;16.96;100.00;100859.41;5064383;28;20281;-57
2023/08/10 00:39:01;;;;;;;1.63;0.40;;;;;;;16.96;100.00;100855.00;5054392;28;20317;-58
2023/08/10 00:41:31;;;;;;;1.93;0.50;;;;;;;17.01;100.00;100874.19;5064347;28;20290;-56
2023/08/10 00:44:06;;;;;;;2.53;0.40;;;;;;;17.00;100.00;100876.88;5054824;28;20677;-57
2023/08/10 00:46:36;;;;;;;1.03;0.23;;;;;;;16.92;100.00;100870.97;5064709;28;20667;-57
2023/08/10 00:49:07;;;;;;;2.87;0.30;;;;;;;17.01;100.00;100862.75;5054181;28;20316;-57
2023/08/10 00:51:38;;;;;;;3.70;0.40;;;;;;;17.11;100.00;100866.81;5064362;28;20281;-58
2023/08/10 00:54:08;;;;;;;0.47;0.30;;;;;;;17.09;100.00;100881.84;5053716;28;20782;-57
2023/08/10 00:56:39;;;;;;;4.60;0.60;;;;;;;17.07;100.00;100873.09;5072267;28;20284;-57
2023/08/10 00:59:12;;;;;;;1.03;0.30;;;;;;;17.10;100.00;100883.59;5073400;28;20278;-59
2023/08/10 01:01:43;;;;;;;0.30;0.30;;;;;;;17.13;100.00;100878.19;5084857;28;20289;-61
2023/08/10 01:04:13;;;;;;;2.10;0.40;;;;;;;17.16;100.00;100872.81;5084625;28;20739;-61
2023/08/10 01:06:50;;;;;;;0.53;0.30;;;;;;;17.14;100.00;100879.91;5083675;28;20775;-60
2023/08/10 01:09:29;;;;;;;1.57;0.30;;;;;;;17.00;100.00;100887.44;5073509;28;20369;-56
2023/08/10 01:12:09;;;;;;;0.47;0.40;;;;;;;16.86;100.00;100879.09;5073794;28;20381;-59
2023/08/10 01:14:49;;;;;;;1.83;0.60;;;;;;;16.73;100.00;100874.19;5083929;28;20055;-58
2023/08/10 01:17:26;;;;;;;0.53;0.50;;;;;;;16.60;100.00;100888.69;5075687;28;20281;-59
2023/08/10 01:20:00;;;;;;;1.47;0.50;;;;;;;16.58;100.00;100895.78;5078001;28;20857;-58
2023/08/10 01:22:41;;;;;;;1.90;0.57;;;;;;;16.54;100.00;100863.34;5088139;28;20494;-57
2023/08/10 01:25:14;;;;;;;1.40;0.60;;;;;;;16.55;100.00;100891.47;5077715;28;20667;-59
2023/08/10 01:27:47;;;;;;;1.73;0.63;;;;;;;16.52;100.00;100885.41;5088411;28;20285;-60
2023/08/10 01:30:18;;;;;;;0.63;0.50;;;;;;;16.38;100.00;100862.97;5077483;28;20281;-60
2023/08/10 01:32:49;;;;;;;1.77;0.70;;;;;;;16.45;100.00;100878.59;5088033;28;20273;-58
2023/08/10 01:35:19;;;;;;;2.43;0.50;;;;;;;16.42;100.00;100878.69;5077432;28;20365;-58
2023/08/10 01:37:50;;;;;;;1.57;0.60;;;;;;;16.47;100.00;100871.50;5088884;28;20311;-57
2023/08/10 01:40:22;;;;;;;0.60;0.50;;;;;;;16.52;100.00;100877.50;5077575;28;20352;-58
2023/08/10 01:42:53;;;;;;;1.80;0.73;;;;;;;16.59;100.00;100871.97;5077821;28;20364;-57
2023/08/10 01:45:24;;;;;;;2.27;0.70;;;;;;;16.70;100.00;100869.03;5088496;28;20501;-59
2023/08/10 01:47:59;;;;;;;2.27;0.47;;;;;;;16.78;100.00;100872.28;5077406;28;20368;-57
2023/08/10 01:50:33;;;;;;;4.13;0.60;;;;;;;16.67;100.00;100873.50;5087789;28;20274;-55
2023/08/10 01:53:08;;;;;;;1.67;0.50;;;;;;;16.50;100.00;100861.75;5077840;28;20277;-59
2023/08/10 01:55:40;;;;;;;3.40;0.70;;;;;;;16.48;100.00;100878.53;5087836;28;20310;-57
2023/08/10 01:58:11;;;;;;;0.60;0.60;;;;;;;16.47;100.00;100871.50;5057071;28;20268;-57
2023/08/10 02:00:42;;;;;;;1.47;0.50;;;;;;;16.42;100.00;100862.88;5067121;28;20286;-60
2023/08/10 02:03:12;;;;;;;2.20;0.80;;;;;;;16.50;100.00;100853.81;5071852;28;20290;-59
2023/08/10 02:05:43;;;;;;;0.73;0.50;;;;;;;16.60;100.00;100857.88;5087449;28;20368;-58
2023/08/10 02:08:14;;;;;;;2.33;0.67;;;;;;;16.59;100.00;100860.56;5076265;28;20728;-58
2023/08/10 02:10:46;;;;;;;2.40;0.40;;;;;;;16.55;100.00;100858.97;5087468;28;20289;-56
2023/08/10 02:13:17;;;;;;;0.83;0.40;;;;;;;16.49;100.00;100859.13;5076722;28;20265;-57
2023/08/10 02:15:47;;;;;;;2.33;0.50;;;;;;;16.48;100.00;100846.88;5086937;28;20360;-59
2023/08/10 02:18:18;;;;;;;0.87;0.53;;;;;;;16.53;100.00;100850.22;5076036;28;20281;-57
2023/08/10 02:20:49;;;;;;;1.33;0.70;;;;;;;16.54;100.00;100836.09;5087199;28;20289;-57
2023/08/10 02:23:19;;;;;;;1.00;0.50;;;;;;;16.61;100.00;100827.09;5076621;28;20724;-56
2023/08/10 02:25:52;;;;;;;1.07;0.60;;;;;;;16.57;100.00;100825.44;5087819;28;20685;-57
2023/08/10 02:28:22;;;;;;;1.20;0.60;;;;;;;16.63;100.00;100820.00;5076011;28;20277;-59
2023/08/10 02:30:53;;;;;;;2.30;0.50;;;;;;;16.59;100.00;100807.81;5074884;28;20492;-58
2023/08/10 02:33:23;;;;;;;1.80;0.60;;;;;;;16.68;100.00;100807.50;5086436;28;20346;-57
2023/08/10 02:35:54;;;;;;;2.30;0.60;;;;;;;16.76;100.00;100802.84;5076240;28;20288;-58
2023/08/10 02:38:24;;;;;;;0.90;0.60;;;;;;;16.81;100.00;100803.56;5086699;28;21049;-57
2023/08/10 02:40:56;;;;;;;1.93;0.60;;;;;;;16.90;100.00;100806.81;5076479;28;20273;-59
2023/08/10 02:43:27;;;;;;;4.10;0.63;;;;;;;16.78;100.00;100816.88;5086563;28;20474;-57
2023/08/10 02:45:57;;;;;;;2.50;0.50;;;;;;;16.68;100.00;100812.78;5076003;28;20265;-56
2023/08/10 02:48:28;;;;;;;0.50;0.50;;;;;;;16.58;100.00;100822.78;5086438;28;20281;-58
2023/08/10 02:50:58;;;;;;;0.97;0.60;;;;;;;16.45;100.00;100820.56;5075888;28;20404;-57
2023/08/10 02:53:29;;;;;;;1.90;0.70;;;;;;;16.35;100.00;100810.31;5086345;28;20784;-58
2023/08/10 02:56:01;;;;;;;0.50;0.50;;;;;;;16.38;100.00;100809.38;5076109;28;20372;-56
2023/08/10 02:58:31;;;;;;;2.03;0.60;;;;;;;16.43;100.00;100817.13;5085957;28;20728;-55
2023/08/10 03:01:07;;;;;;;1.07;0.57;;;;;;;16.37;100.00;100824.34;5075894;28;20307;-58
2023/08/10 03:03:37;;;;;;;2.17;0.83;;;;;;;16.28;100.00;100807.94;5081224;28;20346;-61
2023/08/10 03:06:08;;;;;;;1.47;0.70;;;;;;;16.18;100.00;100823.16;5066591;28;20274;-58
2023/08/10 03:08:38;;;;;;;0.50;0.50;;;;;;;16.09;100.00;100840.13;5086693;28;20373;-57
2023/08/10 03:11:10;;;;;;;1.40;0.77;;;;;;;15.97;100.00;100819.41;5076749;28;20275;-57
2023/08/10 03:13:41;;;;;;;0.80;0.70;;;;;;;15.86;100.00;100808.31;5086743;28;20751;-56
2023/08/10 03:16:11;;;;;;;3.80;0.90;;;;;;;15.88;100.00;100810.00;5075780;28;20406;-61
2023/08/10 03:18:42;;;;;;;2.40;1.10;;;;;;;15.91;100.00;100804.63;5085919;28;20292;-59
2023/08/10 03:21:12;;;;;;;0.90;0.80;;;;;;;15.97;100.00;100793.03;5075238;28;20276;-60
2023/08/10 03:23:43;;;;;;;2.43;0.97;;;;;;;15.99;100.00;100787.72;5085778;28;20278;-60
2023/08/10 03:26:15;;;;;;;3.90;1.03;;;;;;;16.09;100.00;100765.44;5075153;28;20819;-58
2023/08/10 03:28:45;;;;;;;1.33;1.10;;;;;;;16.15;100.00;100766.13;5086636;28;20376;-60
2023/08/10 03:31:16;;;;;;;2.67;0.80;;;;;;;16.12;100.00;100762.72;5062627;28;20272;-59
2023/08/10 03:33:47;;;;;;;1.63;1.00;;;;;;;16.19;100.00;100756.34;5081167;28;20631;-57
2023/08/10 03:36:20;;;;;;;1.43;1.00;;;;;;;16.21;100.00;100759.78;5075346;28;20281;-59
2023/08/10 03:38:51;;;;;;;1.63;1.00;;;;;;;16.23;100.00;100752.69;5080431;28;20313;-56
2023/08/10 03:41:23;;;;;;;2.57;1.10;;;;;;;16.31;100.00;100755.94;5080215;28;20297;-55
2023/08/10 03:43:53;;;;;;;2.50;0.97;;;;;;;16.26;100.00;100765.78;5069380;28;20277;-58
2023/08/10 03:46:24;;;;;;;2.60;0.90;;;;;;;16.20;100.00;100773.91;5076579;28;21380;-56
2023/08/10 03:48:54;;;;;;;1.53;0.90;;;;;;;15.97;100.00;100790.41;5074385;28;20301;-57
2023/08/10 03:51:25;;;;;;;1.23;0.90;;;;;;;15.88;100.00;100791.56;5085240;28;20398;-58
2023/08/10 03:53:55;;;;;;;1.80;1.10;;;;;;;15.77;100.00;100788.34;5073987;28;20282;-58
2023/08/10 03:56:27;;;;;;;2.03;1.47;;;;;;;15.75;100.00;100782.31;5077821;28;20378;-58
2023/08/10 03:58:58;;;;;;;2.30;1.10;;;;;;;15.72;100.00;100777.09;5070514;28;20680;-59
2023/08/10 04:01:28;;;;;;;1.57;1.13;;;;;;;15.73;100.00;100784.09;5076296;28;20278;-58
2023/08/10 04:03:59;;;;;;;3.00;1.23;;;;;;;15.84;100.00;100789.91;5063711;28;20639;-58
2023/08/10 04:06:30;;;;;;;1.97;0.93;;;;;;;15.92;100.00;100790.53;5079852;28;20631;-57
2023/08/10 04:09:00;;;;;;;2.63;1.20;;;;;;;15.95;100.00;100779.94;5074832;28;20278;-56
2023/08/10 04:11:32;;;;;;;2.80;1.27;;;;;;;15.95;100.00;100785.19;5085190;28;20963;-58
2023/08/10 04:14:03;;;;;;;1.67;1.00;;;;;;;15.92;100.00;100794.94;5075179;28;20642;-56
2023/08/10 04:16:33;;;;;;;1.97;1.10;;;;;;;15.86;100.00;100811.81;5085008;28;20309;-58
2023/08/10 04:19:04;;;;;;;0.83;0.70;;;;;;;15.83;100.00;100811.91;5074327;28;20324;-55
2023/08/10 04:21:35;;;;;;;1.20;1.10;;;;;;;15.78;100.00;100816.44;5084725;28;20648;-57
2023/08/10 04:24:06;;;;;;;1.50;1.00;;;;;;;15.70;100.00;100815.78;5068378;28;20277;-59
2023/08/10 04:26:38;;;;;;;1.73;1.00;;;;;;;15.61;100.00;100816.03;5064890;28;20286;-56
2023/08/10 04:29:09;;;;;;;1.47;1.10;;;;;;;15.62;100.00;100815.13;5055934;28;20306;-57
2023/08/10 04:31:40;;;;;;;2.00;1.30;;;;;;;15.64;100.00;100810.69;5081981;28;20342;-60
2023/08/10 04:34:10;;;;;;;1.57;1.13;;;;;;;15.61;100.00;100801.09;5055150;28;20282;-61
2023/08/10 04:36:41;;;;;;;1.70;0.73;;;;;;;15.60;100.00;100795.84;5058603;28;20997;-56
2023/08/10 04:39:11;;;;;;;3.53;1.10;;;;;;;15.60;100.00;100785.31;5055264;28;20280;-60
2023/08/10 04:41:44;;;;;;;2.13;0.90;;;;;;;15.66;100.00;100777.25;5063647;28;20289;-58
2023/08/10 04:44:14;;;;;;;2.80;1.10;;;;;;;15.54;100.00;100747.72;5043333;28;20329;-57
2023/08/10 04:46:45;;;;;;;2.40;1.20;;;;;;;15.80;100.00;100764.59;5053148;28;20278;-60
2023/08/10 04:49:15;;;;;;;2.50;1.10;;;;;;;15.82;100.00;100762.72;5042754;28;20721;-58
2023/08/10 04:51:46;;;;;;;1.33;1.20;;;;;;;15.84;100.00;100771.47;5057494;28;20365;-57
2023/08/10 04:54:17;;;;;;;1.20;1.10;;;;;;;15.80;100.00;100764.59;5054738;28;20286;-58
2023/08/10 04:56:49;;;;;;;3.27;1.30;;;;;;;15.74;100.00;100764.75;5055363;28;20303;-58
2023/08/10 04:59:20;;;;;;;1.67;1.20;;;;;;;15.81;100.00;100761.03;5046151;28;20335;-56
2023/08/10 05:01:51;;;;;;;7.27;1.77;;;;;;;15.80;100.00;100743.50;5047956;28;20711;-58
2023/08/10 05:04:21;;;;;;;2.00;1.50;;;;;;;15.74;100.00;100733.13;5056192;28;20263;-58
2023/08/10 05:06:52;;;;;;;2.30;1.30;;;;;;;15.81;100.00;100728.53;5040484;28;20309;-60
2023/08/10 05:09:22;;;;;;;1.70;1.23;;;;;;;15.87;100.00;100734.47;5056171;28;20586;-54
2023/08/10 05:11:54;;;;;;;2.37;1.40;;;;;;;15.80;100.00;100738.22;5037326;28;20271;-58
2023/08/10 05:14:25;;;;;;;1.77;1.43;;;;;;;15.76;100.00;100731.31;5057150;28;20306;-57
2023/08/10 05:16:55;;;;;;;1.70;1.30;;;;;;;15.76;100.00;100735.72;5047692;28;20290;-60
2023/08/10 05:19:26;;;;;;;1.37;1.27;;;;;;;15.75;100.00;100745.41;5050846;28;20397;-58
2023/08/10 05:21:56;;;;;;;1.77;1.33;;;;;;;15.77;100.00;100763.78;5054765;28;20281;-58
2023/08/10 05:24:27;;;;;;;2.07;1.40;;;;;;;15.68;100.00;100772.81;5057459;28;20710;-60
2023/08/10 05:27:00;;;;;;;2.57;1.50;;;;;;;15.62;100.00;100767.72;5053354;28;20305;-56
2023/08/10 05:29:30;;;;;;;1.97;1.53;;;;;;;15.63;100.00;100782.63;5064236;28;20778;-57
2023/08/10 05:32:01;;;;;;;2.70;1.50;;;;;;;15.58;100.00;100779.25;5054145;28;20347;-59
2023/08/10 05:34:33;;;;;;;2.07;1.50;;;;;;;15.55;100.00;100780.22;5058404;28;20361;-57
2023/08/10 05:37:03;;;;;;;4.03;1.83;;;;;;;15.58;100.00;100781.91;5044311;28;20636;-57
2023/08/10 05:39:34;;;;;;;1.73;1.60;;;;;;;15.59;100.00;100791.50;5057499;28;20281;-58
2023/08/10 05:42:07;;;;;;;1.60;1.20;;;;;;;15.57;100.00;100793.31;5053572;28;20278;-56
2023/08/10 05:44:38;;;;;;;1.63;1.40;;;;;;;15.56;100.00;100786.34;5063819;28;20604;-57
2023/08/10 05:47:08;;;;;;;1.63;1.33;;;;;;;15.56;100.00;100775.81;5046835;28;20309;-57
2023/08/10 05:49:39;;;;;;;1.80;1.30;;;;;;;15.49;100.00;100765.41;5064365;28;20365;-58
2023/08/10 05:52:09;;;;;;;1.50;1.00;;;;;;;15.48;100.00;100753.19;5053683;28;20342;-59
2023/08/10 05:54:40;;;;;;;2.60;1.30;;;;;;;15.56;100.00;100749.47;5063758;28;20278;-57
2023/08/10 05:57:13;;;;;;;1.60;0.90;;;;;;;15.59;100.00;100749.38;5037293;28;20284;-62
2023/08/10 05:59:44;;;;;;;1.80;1.20;;;;;;;15.61;100.00;100763.34;5049284;28;20282;-63
2023/08/10 06:02:16;;;;;;;1.37;0.93;;;;;;;15.50;100.00;100746.09;5038074;28;20283;-58
2023/08/10 06:04:48;;;;;;;1.60;1.00;;;;;;;15.57;100.00;100751.16;5055007;28;20274;-59
2023/08/10 06:07:20;;;;;;;1.20;1.10;;;;;;;15.57;100.00;100751.16;5043529;28;20359;-56
2023/08/10 06:09:50;;;;;;;1.07;0.97;;;;;;;15.65;100.00;100749.16;5063826;28;20298;-57
2023/08/10 06:12:23;;;;;;;1.30;1.10;;;;;;;15.62;100.00;100776.47;5066083;28;20302;-55
2023/08/10 06:14:53;;;;;;;2.23;1.00;;;;;;;15.57;100.00;100793.31;5052478;28;20378;-57
2023/08/10 06:17:24;;;;;;;2.10;1.00;;;;;;;15.50;100.00;100795.25;5067313;28;20271;-56
2023/08/10 06:19:57;;;;;;;1.70;1.17;;;;;;;15.51;100.00;100799.63;5057743;28;20306;-57
2023/08/10 06:22:28;;;;;;;1.53;1.10;;;;;;;15.50;100.00;100798.78;5066936;28;20293;-59
2023/08/10 06:24:58;;;;;;;1.73;1.20;;;;;;;15.43;100.00;100797.22;5056900;28;20281;-57
2023/08/10 06:27:30;;;;;;;0.80;0.80;;;;;;;15.38;100.00;100793.84;5067127;28;20302;-57
2023/08/10 06:30:01;;;;;;;1.27;1.10;;;;;;;15.37;100.00;100797.38;5037705;28;20305;-58
2023/08/10 06:32:32;;;;;;;2.07;1.20;;;;;;;15.34;100.00;100818.53;5047514;28;20302;-60
2023/08/10 06:35:04;;;;;;;1.80;1.10;;;;;;;15.32;100.00;100805.41;5037619;28;20633;-61
2023/08/10 06:37:34;;;;;;;1.70;1.10;;;;;;;15.26;100.00;100805.56;5047286;28;21036;-56
2023/08/10 06:40:08;;;;;;;1.50;1.10;;;;;;;15.25;100.00;100809.13;5042047;28;20745;-58
2023/08/10 06:42:40;;;;;;;2.07;1.17;;;;;;;15.21;100.00;100811.88;5066925;28;20275;-60
2023/08/10 06:45:11;;;;;;;1.20;0.90;;;;;;;15.21;100.00;100806.59;5056115;28;20347;-60
2023/08/10 06:47:43;;;;;;;2.13;1.20;;;;;;;15.19;100.00;100797.88;5066645;28;20274;-58
2023/08/10 06:50:13;;;;;;;1.53;1.10;;;;;;;15.20;100.00;100794.31;5056211;28;20320;-61
2023/08/10 06:52:45;;;;;;;1.23;0.97;;;;;;;15.10;100.00;100763.00;5067598;28;20270;-58
2023/08/10 06:55:15;;;;;;;1.20;1.10;;;;;;;15.07;100.00;100768.34;5056673;28;20289;-56
2023/08/10 06:57:48;;;;;;;1.67;1.30;;;;;;;15.02;100.00;100762.34;5050017;28;20621;-55
2023/08/10 07:00:22;;;;;;;2.30;1.07;;;;;;;14.97;100.00;100766.84;5037183;28;20601;-58
2023/08/10 07:02:55;;;;;;;1.10;0.80;;;;;;;14.98;100.00;100763.34;5037425;28;20571;-60
2023/08/10 07:05:27;;;;;;;3.73;1.20;;;;;;;14.96;100.00;100765.16;5047460;28;20583;-59
2023/08/10 07:07:58;;;;;;;3.03;1.03;;;;;;;14.94;100.00;100760.81;5037955;28;20298;-57
2023/08/10 07:10:28;;;;;;;0.90;0.90;;;;;;;14.93;100.00;100751.22;5066358;28;20285;-57
2023/08/10 07:13:00;;;;;;;1.40;1.30;;;;;;;14.90;100.00;100738.97;5056794;28;20373;-60
2023/08/10 07:15:32;;;;;;;5.80;1.23;;;;;;;14.91;100.00;100739.88;5064184;28;20340;-56
2023/08/10 07:18:03;;;;;;;4.90;1.40;;;;;;;14.91;100.00;100748.63;5055253;28;20286;-58
2023/08/10 07:20:37;;;;;;;1.27;1.00;;;;;;;14.87;100.00;100746.97;5065934;28;20605;-57
2023/08/10 07:23:07;;;;;;;3.83;1.73;;;;;;;14.86;100.00;100753.13;5054675;28;20290;-57
2023/08/10 07:25:38;;;;;;;3.63;1.40;;;;;;;14.87;100.00;100745.19;5065100;28;20288;-57
2023/08/10 07:28:10;;;;;;;4.03;1.20;;;;;;;14.87;100.00;100752.22;5053674;28;20299;-57
2023/08/10 07:30:41;;;;;;;3.83;1.20;;;;;;;14.81;100.00;100755.03;5065897;28;20386;-59
2023/08/10 07:33:13;;;;;;;5.77;1.50;;;;;;;14.70;100.00;100741.28;5058498;28;20673;-57
2023/08/10 07:35:47;;;;;;;2.87;1.50;;;;;;;14.81;100.00;100750.63;5078106;28;20365;-57
2023/08/10 07:38:26;;;;;;;4.13;1.13;;;;;;;14.82;100.00;100756.75;5074451;28;20265;-55
2023/08/10 07:40:59;;;;;;;2.10;1.60;;;;;;;14.76;100.00;100756.91;5058209;28;20369;-56
2023/08/10 07:43:36;;;;;;;7.23;1.63;;;;;;;14.75;100.00;100760.44;5065506;28;20139;-59
2023/08/10 07:46:06;;;;;;;2.97;1.43;;;;;;;14.64;100.00;100743.16;5054969;28;20354;-56
2023/08/10 07:48:38;;;;;;;1.50;1.10;;;;;;;14.61;100.00;100752.91;5082210;28;20284;-55
2023/08/10 07:51:09;;;;;;;2.13;1.10;;;;;;;14.66;100.00;100772.91;5074939;28;20674;-57
2023/08/10 07:53:40;;;;;;;2.43;1.30;;;;;;;14.64;100.00;100779.97;5085536;28;20284;-55
2023/08/10 07:56:11;;;;;;;2.80;1.10;;;;;;;14.64;100.00;100782.59;5074554;28;20354;-58
2023/08/10 07:58:43;;;;;;;1.60;1.13;;;;;;;14.63;100.00;100788.78;5085404;28;20318;-57
2023/08/10 08:01:15;;;;;;;2.70;1.60;;;;;;;14.62;100.00;100792.28;5074108;28;20381;-59
2023/08/10 08:03:45;;;;;;;3.27;1.10;;;;;;;14.62;100.00;100792.28;5084683;28;20298;-56
2023/08/10 08:06:16;;;;;;;4.63;1.17;;;;;;;14.61;100.00;100795.84;5071293;28;20347;-59
2023/08/10 08:08:46;;;;;;;3.07;1.30;;;;;;;14.63;100.00;100783.53;5079304;28;20655;-56
2023/08/10 08:11:18;;;;;;;3.13;1.10;;;;;;;14.60;100.00;100778.34;5062935;28;20262;-61
2023/08/10 08:13:51;;;;;;;1.40;1.13;;;;;;;14.54;100.00;100783.75;5070729;28;20678;-59
2023/08/10 08:16:22;;;;;;;4.13;1.23;;;;;;;14.53;100.00;100787.28;5058937;28;20289;-56
2023/08/10 08:18:54;;;;;;;2.50;0.80;;;;;;;14.51;100.00;100786.41;5058815;28;20285;-59
2023/08/10 08:21:26;;;;;;;2.47;1.20;;;;;;;14.39;100.00;100773.56;5071233;28;20814;-60
2023/08/10 08:23:58;;;;;;;2.23;1.00;;;;;;;14.32;100.00;100753.56;5059181;28;20274;-60
2023/08/10 08:26:30;;;;;;;2.37;1.10;;;;;;;14.52;100.00;100788.13;5071074;28;20311;-59
2023/08/10 08:29:02;;;;;;;2.20;0.97;;;;;;;14.49;100.00;100775.06;5058969;28;20273;-58
2023/08/10 08:31:33;;;;;;;3.10;1.20;;;;;;;14.49;100.00;100769.81;5069290;28;20373;-60
2023/08/10 08:34:04;;;;;;;3.20;1.20;;;;;;;14.44;100.00;100761.16;5058692;28;21095;-59
2023/08/10 08:36:35;;;;;;;2.37;1.00;;;;;;;14.39;100.00;100763.06;5052049;28;20281;-59
2023/08/10 08:39:06;;;;;;;2.17;1.00;;;;;;;14.39;100.00;100755.16;5059559;28;20350;-59
2023/08/10 08:41:39;;;;;;;2.10;1.20;;;;;;;14.35;100.00;100745.63;5070122;28;20369;-59
2023/08/10 08:44:11;;;;;;;1.80;1.10;;;;;;;14.27;100.00;100726.53;5059642;28;20377;-59
2023/08/10 08:46:44;;;;;;;3.27;1.17;;;;;;;14.27;100.00;100716.03;5070050;28;20306;-59
2023/08/10 08:49:16;;;;;;;2.10;1.00;;;;;;;14.32;100.00;100725.53;5060558;28;20286;-58
2023/08/10 08:51:47;;;;;;;1.73;1.07;;;;;;;14.33;100.00;100716.75;5070190;28;20404;-59
2023/08/10 08:54:18;;;;;;;2.77;1.10;;;;;;;14.30;100.00;100713.31;5059505;28;20292;-60
2023/08/10 08:56:49;;;;;;;2.20;1.40;;;;;;;14.30;100.00;100695.78;5070376;28;20949;-59
2023/08/10 08:59:22;;;;;;;6.17;1.73;;;;;;;14.30;100.00;100684.41;5058547;28;20294;-58
2023/08/10 09:01:58;;;;;;;1.27;1.00;;;;;;;14.26;100.00;100677.50;5058921;28;20592;-57
2023/08/10 09:04:46;;;;;;;1.30;0.90;;;;;;;14.23;100.00;100676.69;5067375;28;20292;-58
2023/08/10 09:07:18;;;;;;;6.53;1.17;;;;;;;14.03;100.00;100639.53;5056188;28;20335;-60
2023/08/10 09:09:49;;;;;;;2.60;0.80;;;;;;;14.21;100.00;100653.97;5067800;28;20530;-60
2023/08/10 09:12:30;;;;;;;1.47;0.70;;;;;;;14.20;100.00;100658.38;5058800;28;20297;-59
2023/08/10 09:15:11;;;;;;;4.43;0.70;;;;;;;14.13;100.00;100661.19;5058277;28;20282;-59
2023/08/10 09:17:47;;;;;;;2.00;0.83;;;;;;;14.19;100.00;100672.38;5066760;28;20377;-58
2023/08/10 09:20:25;;;;;;;4.07;0.80;;;;;;;13.69;100.00;100579.06;5057050;28;20301;-60
2023/08/10 09:23:04;;;;;;;2.28;1.20;;;;;;;14.14;100.00;100652.38;5057022;28;20292;-58
2023/08/10 09:25:40;;;;;;;2.83;1.13;;;;;;;14.03;100.00;100650.03;5035013;28;20373;-60
2023/08/10 09:28:15;;;;;;;1.60;1.03;;;;;;;14.15;100.00;100691.78;5058365;28;20759;-59
2023/08/10 09:30:51;;;;;;;2.77;1.23;;;;;;;14.15;100.00;100681.28;5070062;28;20291;-58
2023/08/10 09:33:32;;;;;;;7.57;1.30;;;;;;;13.84;100.00;100633.00;5058766;28;20781;-60
2023/08/10 09:36:06;;;;;;;2.10;1.00;;;;;;;14.09;100.00;100686.66;5056337;28;20290;-59
2023/08/10 09:38:37;;;;;;;4.27;1.50;;;;;;;14.07;100.00;100690.22;5068771;28;20290;-60
2023/08/10 09:41:14;;;;;;;2.67;1.13;;;;;;;14.05;100.00;100682.38;5062073;28;20636;-61
2023/08/10 09:43:46;;;;;;;3.40;0.97;;;;;;;14.01;100.00;100675.47;5072192;28;20277;-56
2023/08/10 09:46:20;;;;;;;2.97;1.07;;;;;;;13.98;100.00;100683.44;5059816;28;20301;-60
2023/08/10 09:48:52;;;;;;;2.00;1.27;;;;;;;13.98;100.00;100691.31;5065762;28;20295;-61
2023/08/10 09:51:24;;;;;;;2.17;1.17;;;;;;;13.91;100.00;100681.84;5072266;28;20910;-61
2023/08/10 09:53:56;;;;;;;3.80;1.10;;;;;;;13.85;100.00;100676.72;5060138;28;20286;-60
2023/08/10 09:56:28;;;;;;;3.30;1.13;;;;;;;13.99;100.00;100706.19;5073582;28;21476;-58
2023/08/10 09:59:00;;;;;;;2.30;0.87;;;;;;;14.02;100.00;100716.59;5059133;28;20266;-61
2023/08/10 10:01:34;;;;;;;2.23;1.10;;;;;;;14.03;100.00;100718.34;5074591;28;20278;-59
2023/08/10 10:04:06;;;;;;;3.23;1.17;;;;;;;14.01;100.00;100725.41;5062848;28;20451;-58
2023/08/10 10:06:39;;;;;;;4.33;1.17;;;;;;;14.02;100.00;100732.38;5071627;28;20777;-60
2023/08/10 10:09:11;;;;;;;4.53;1.20;;;;;;;14.02;100.00;100732.38;5061717;28;20762;-59
2023/08/10 10:11:44;;;;;;;2.43;1.00;;;;;;;14.05;100.00;100737.56;5074714;28;20767;-59
2023/08/10 10:14:17;;;;;;;5.53;1.30;;;;;;;13.75;100.00;100697.97;5061750;28;20301;-58
2023/08/10 10:16:53;;;;;;;4.03;1.30;;;;;;;13.96;100.00;100728.13;5074083;28;20285;-58
2023/08/10 10:19:25;;;;;;;2.70;1.40;;;;;;;14.06;100.00;100734.03;5063327;28;20289;-60
2023/08/10 10:22:08;;;;;;;4.50;1.00;;;;;;;14.05;100.00;100737.56;5062272;28;20304;-62
2023/08/10 10:24:44;;;;;;;2.63;1.00;;;;;;;14.05;100.00;100748.06;5071605;28;20287;-60
2023/08/10 10:27:16;;;;;;;2.60;1.40;;;;;;;13.77;100.00;100706.66;5062261;28;20722;-60
2023/08/10 10:29:54;;;;;;;1.87;1.20;;;;;;;13.62;100.00;100664.97;5073455;28;20276;-60
2023/08/10 10:32:28;;;;;;;3.17;1.10;;;;;;;14.06;100.00;100736.66;5062859;28;20595;-58
2023/08/10 10:35:01;;;;;;;4.20;1.20;;;;;;;14.07;100.00;100741.00;5062304;28;20339;-60
2023/08/10 10:37:34;;;;;;;2.33;1.30;;;;;;;14.08;100.00;100748.00;5072409;28;20294;-60
2023/08/10 10:40:16;;;;;;;2.03;1.13;;;;;;;13.98;100.00;100714.97;5062072;28;20293;-60
2023/08/10 10:43:10;;;;;;;1.50;0.90;;;;;;;14.02;100.00;100719.22;5071136;28;20309;-60
2023/08/10 10:45:43;;;;;;;3.63;1.10;;;;;;;14.06;100.00;100718.28;5072339;28;20288;-59
2023/08/10 10:48:17;;;;;;;1.70;1.17;;;;;;;14.07;100.00;100725.25;5059904;28;20293;-59
2023/08/10 10:50:48;;;;;;;1.50;0.90;;;;;;;14.11;100.00;100726.91;5071965;28;20671;-61
2023/08/10 10:53:25;;;;;;;2.37;0.73;;;;;;;14.10;100.00;100717.28;5062108;28;20301;-61
2023/08/10 10:55:57;;;;;;;3.27;1.00;;;;;;;14.08;100.00;100708.59;5061515;28;20285;-60
2023/08/10 10:58:36;;;;;;;3.60;1.23;;;;;;;14.06;100.00;100707.75;5075570;28;20623;-57
2023/08/10 11:01:08;;;;;;;2.23;1.10;;;;;;;14.08;100.00;100700.72;5065922;28;20286;-61
2023/08/10 11:03:42;;;;;;;3.50;1.17;;;;;;;14.00;100.00;100681.63;5075706;28;20357;-60
2023/08/10 11:06:15;;;;;;;3.57;0.90;;;;;;;14.06;100.00;100692.00;5062023;28;20307;-59
2023/08/10 11:08:51;;;;;;;3.30;0.93;;;;;;;14.08;100.00;100684.94;5072791;28;21465;-59
2023/08/10 11:11:23;;;;;;;5.90;0.90;;;;;;;14.10;100.00;100688.38;5061966;28;20284;-58
2023/08/10 11:13:56;;;;;;;1.00;0.80;;;;;;;14.09;100.00;100686.66;5060366;28;20632;-59
2023/08/10 11:16:28;;;;;;;0.73;0.60;;;;;;;14.05;100.00;100679.75;5070901;28;20308;-56
2023/08/10 11:19:02;;;;;;;1.33;0.80;;;;;;;14.03;100.00;100676.31;5060073;28;20312;-57
2023/08/10 11:21:40;;;;;;;2.40;0.80;;;;;;;13.39;100.00;100557.88;5071605;28;20658;-59
2023/08/10 11:24:19;;;;;;;3.13;0.80;;;;;;;14.04;100.00;100667.53;5061584;28;20650;-62
2023/08/10 11:26:52;;;;;;;1.33;0.60;;;;;;;14.02;100.00;100658.81;5072242;28;20295;-61
2023/08/10 11:29:29;;;;;;;3.27;0.80;;;;;;;13.91;100.00;100645.06;5060925;28;20547;-59
2023/08/10 11:32:01;;;;;;;1.57;0.73;;;;;;;14.03;100.00;100665.81;5061751;28;20593;-60
2023/08/10 11:34:52;;;;;;;3.40;0.70;;;;;;;14.02;100.00;100659.66;5071823;28;20314;-59
2023/08/10 11:37:32;;;;;;;2.47;0.70;;;;;;;13.93;100.00;100654.66;5060583;28;20287;-61
2023/08/10 11:40:13;;;;;;;5.27;0.80;;;;;;;13.86;100.00;100646.94;5060598;28;20346;-60